sensor_id;sensor_type;location;lat;lon;timestamp;P1;durP1;ratioP1;P2;durP2;ratioP2
51828;SDS011;37881;48.024;8.774;2024-02-26T00:02:07;10.18;;;5.25;;
51828;SDS011;37881;48.024;8.774;2024-02-26T00:04:34;10.05;;;5.43;;
51828;SDS011;37881;48.024;8.774;2024-02-26T00:07:01;10.38;;;5.50;;
51828;SDS011;37881;48.024;8.774;2024-02-26T00:09:28;11.98;;;5.20;;
51828;SDS011;37881;48.024;8.774;2024-02-26T00:11:54;8.70;;;4.07;;
51828;SDS011;37881;48.024;8.774;2024-02-26T00:14:22;6.78;;;3.78;;
51828;SDS011;37881;48.024;8.774;2024-02-26T00:16:48;8.85;;;4.43;;
51828;SDS011;37881;48.024;8.774;2024-02-26T00:19:15;8.65;;;4.28;;
51828;SDS011;37881;48.024;8.774;2024-02-26T00:21:42;9.35;;;5.20;;
51828;SDS011;37881;48.024;8.774;2024-02-26T00:24:09;8.67;;;4.43;;
51828;SDS011;37881;48.024;8.774;2024-02-26T00:26:36;10.38;;;5.88;;
51828;SDS011;37881;48.024;8.774;2024-02-26T00:29:02;8.45;;;4.13;;
51828;SDS011;37881;48.024;8.774;2024-02-26T00:31:29;7.57;;;3.95;;
51828;SDS011;37881;48.024;8.774;2024-02-26T00:33:56;6.25;;;3.65;;
51828;SDS011;37881;48.024;8.774;2024-02-26T00:36:23;7.23;;;3.37;;
51828;SDS011;37881;48.024;8.774;2024-02-26T00:38:50;8.43;;;4.50;;
51828;SDS011;37881;48.024;8.774;2024-02-26T00:41:19;9.80;;;5.30;;
51828;SDS011;37881;48.024;8.774;2024-02-26T00:43:47;9.98;;;5.28;;
51828;SDS011;37881;48.024;8.774;2024-02-26T00:46:13;9.02;;;5.10;;
51828;SDS011;37881;48.024;8.774;2024-02-26T00:48:40;9.77;;;5.30;;
51828;SDS011;37881;48.024;8.774;2024-02-26T00:51:07;9.10;;;5.05;;
51828;SDS011;37881;48.024;8.774;2024-02-26T00:53:35;9.15;;;4.82;;
51828;SDS011;37881;48.024;8.774;2024-02-26T00:56:01;9.10;;;4.18;;
51828;SDS011;37881;48.024;8.774;2024-02-26T00:58:28;6.15;;;3.63;;
51828;SDS011;37881;48.024;8.774;2024-02-26T01:00:55;8.20;;;4.37;;
51828;SDS011;37881;48.024;8.774;2024-02-26T01:03:22;7.32;;;4.05;;
51828;SDS011;37881;48.024;8.774;2024-02-26T01:05:48;7.70;;;4.30;;
51828;SDS011;37881;48.024;8.774;2024-02-26T01:08:15;8.20;;;4.10;;
51828;SDS011;37881;48.024;8.774;2024-02-26T01:10:42;10.55;;;4.65;;
51828;SDS011;37881;48.024;8.774;2024-02-26T01:13:09;9.13;;;4.20;;
51828;SDS011;37881;48.024;8.774;2024-02-26T01:15:36;7.95;;;4.05;;
51828;SDS011;37881;48.024;8.774;2024-02-26T01:18:02;7.78;;;4.15;;
51828;SDS011;37881;48.024;8.774;2024-02-26T01:20:29;7.60;;;3.30;;
51828;SDS011;37881;48.024;8.774;2024-02-26T01:22:56;7.85;;;3.80;;
51828;SDS011;37881;48.024;8.774;2024-02-26T01:25:23;9.03;;;4.00;;
51828;SDS011;37881;48.024;8.774;2024-02-26T01:27:49;7.72;;;3.53;;
51828;SDS011;37881;48.024;8.774;2024-02-26T01:30:16;7.28;;;4.03;;
51828;SDS011;37881;48.024;8.774;2024-02-26T01:32:43;8.30;;;4.10;;
51828;SDS011;37881;48.024;8.774;2024-02-26T01:35:10;8.63;;;4.28;;
51828;SDS011;37881;48.024;8.774;2024-02-26T01:37:38;8.50;;;3.87;;
51828;SDS011;37881;48.024;8.774;2024-02-26T01:40:05;8.18;;;3.67;;
51828;SDS011;37881;48.024;8.774;2024-02-26T01:42:33;8.20;;;4.15;;
51828;SDS011;37881;48.024;8.774;2024-02-26T01:45:00;7.40;;;3.50;;
51828;SDS011;37881;48.024;8.774;2024-02-26T01:47:27;8.10;;;3.92;;
51828;SDS011;37881;48.024;8.774;2024-02-26T01:49:55;6.87;;;3.50;;
51828;SDS011;37881;48.024;8.774;2024-02-26T01:52:22;7.70;;;3.83;;
51828;SDS011;37881;48.024;8.774;2024-02-26T01:54:49;8.10;;;3.97;;
51828;SDS011;37881;48.024;8.774;2024-02-26T01:57:17;7.82;;;4.32;;
51828;SDS011;37881;48.024;8.774;2024-02-26T01:59:44;8.43;;;3.85;;
51828;SDS011;37881;48.024;8.774;2024-02-26T02:02:11;8.70;;;4.23;;
51828;SDS011;37881;48.024;8.774;2024-02-26T02:04:39;8.13;;;3.80;;
51828;SDS011;37881;48.024;8.774;2024-02-26T02:07:06;6.57;;;3.53;;
51828;SDS011;37881;48.024;8.774;2024-02-26T02:09:33;6.28;;;3.20;;
51828;SDS011;37881;48.024;8.774;2024-02-26T02:12:01;6.72;;;3.25;;
51828;SDS011;37881;48.024;8.774;2024-02-26T02:14:28;5.60;;;3.33;;
51828;SDS011;37881;48.024;8.774;2024-02-26T02:16:55;8.45;;;3.50;;
51828;SDS011;37881;48.024;8.774;2024-02-26T02:19:21;6.57;;;3.33;;
51828;SDS011;37881;48.024;8.774;2024-02-26T02:21:48;6.45;;;3.45;;
51828;SDS011;37881;48.024;8.774;2024-02-26T02:24:15;4.90;;;2.88;;
51828;SDS011;37881;48.024;8.774;2024-02-26T02:26:41;4.47;;;2.30;;
51828;SDS011;37881;48.024;8.774;2024-02-26T02:29:09;4.43;;;2.05;;
51828;SDS011;37881;48.024;8.774;2024-02-26T02:31:36;3.80;;;2.03;;
51828;SDS011;37881;48.024;8.774;2024-02-26T02:34:03;4.32;;;2.58;;
51828;SDS011;37881;48.024;8.774;2024-02-26T02:36:30;4.47;;;2.72;;
51828;SDS011;37881;48.024;8.774;2024-02-26T02:38:57;5.63;;;2.80;;
51828;SDS011;37881;48.024;8.774;2024-02-26T02:41:23;6.43;;;3.05;;
51828;SDS011;37881;48.024;8.774;2024-02-26T02:43:50;5.45;;;2.95;;
51828;SDS011;37881;48.024;8.774;2024-02-26T02:46:17;5.40;;;3.17;;
51828;SDS011;37881;48.024;8.774;2024-02-26T02:48:44;6.95;;;3.85;;
51828;SDS011;37881;48.024;8.774;2024-02-26T02:51:11;6.93;;;4.00;;
51828;SDS011;37881;48.024;8.774;2024-02-26T02:53:38;8.52;;;4.03;;
51828;SDS011;37881;48.024;8.774;2024-02-26T02:56:05;9.43;;;4.10;;
51828;SDS011;37881;48.024;8.774;2024-02-26T02:58:32;7.30;;;3.92;;
51828;SDS011;37881;48.024;8.774;2024-02-26T03:00:59;8.23;;;4.22;;
51828;SDS011;37881;48.024;8.774;2024-02-26T03:03:27;6.90;;;3.67;;
51828;SDS011;37881;48.024;8.774;2024-02-26T03:05:55;6.78;;;3.40;;
51828;SDS011;37881;48.024;8.774;2024-02-26T03:08:22;6.43;;;3.65;;
51828;SDS011;37881;48.024;8.774;2024-02-26T03:10:52;5.57;;;3.10;;
51828;SDS011;37881;48.024;8.774;2024-02-26T03:13:18;4.75;;;2.80;;
51828;SDS011;37881;48.024;8.774;2024-02-26T03:15:45;6.40;;;3.30;;
51828;SDS011;37881;48.024;8.774;2024-02-26T03:18:12;7.53;;;3.67;;
51828;SDS011;37881;48.024;8.774;2024-02-26T03:20:39;7.55;;;4.00;;
51828;SDS011;37881;48.024;8.774;2024-02-26T03:23:06;6.40;;;3.60;;
51828;SDS011;37881;48.024;8.774;2024-02-26T03:25:32;7.18;;;3.40;;
51828;SDS011;37881;48.024;8.774;2024-02-26T03:27:59;8.00;;;3.77;;
51828;SDS011;37881;48.024;8.774;2024-02-26T03:30:26;8.95;;;4.05;;
51828;SDS011;37881;48.024;8.774;2024-02-26T03:32:52;7.35;;;3.45;;
51828;SDS011;37881;48.024;8.774;2024-02-26T03:35:19;6.72;;;3.50;;
51828;SDS011;37881;48.024;8.774;2024-02-26T03:37:46;6.55;;;3.85;;
51828;SDS011;37881;48.024;8.774;2024-02-26T03:40:14;6.07;;;4.00;;
51828;SDS011;37881;48.024;8.774;2024-02-26T03:42:41;8.07;;;4.13;;
51828;SDS011;37881;48.024;8.774;2024-02-26T03:45:08;7.15;;;3.92;;
51828;SDS011;37881;48.024;8.774;2024-02-26T03:47:37;8.20;;;3.80;;
51828;SDS011;37881;48.024;8.774;2024-02-26T03:50:06;9.95;;;3.50;;
51828;SDS011;37881;48.024;8.774;2024-02-26T03:52:33;6.23;;;3.17;;
51828;SDS011;37881;48.024;8.774;2024-02-26T03:55:00;5.57;;;3.10;;
51828;SDS011;37881;48.024;8.774;2024-02-26T03:57:27;13.50;;;5.40;;
51828;SDS011;37881;48.024;8.774;2024-02-26T03:59:54;6.85;;;3.60;;
51828;SDS011;37881;48.024;8.774;2024-02-26T04:02:20;6.93;;;4.10;;
51828;SDS011;37881;48.024;8.774;2024-02-26T04:04:49;9.03;;;4.00;;
51828;SDS011;37881;48.024;8.774;2024-02-26T04:07:16;8.43;;;4.85;;
51828;SDS011;37881;48.024;8.774;2024-02-26T04:09:43;6.60;;;3.83;;
51828;SDS011;37881;48.024;8.774;2024-02-26T04:12:10;7.80;;;3.60;;
51828;SDS011;37881;48.024;8.774;2024-02-26T04:14:37;8.55;;;4.35;;
51828;SDS011;37881;48.024;8.774;2024-02-26T04:17:04;8.87;;;4.27;;
51828;SDS011;37881;48.024;8.774;2024-02-26T04:19:31;9.93;;;5.60;;
51828;SDS011;37881;48.024;8.774;2024-02-26T04:21:59;8.65;;;5.00;;
51828;SDS011;37881;48.024;8.774;2024-02-26T04:24:26;7.75;;;4.20;;
51828;SDS011;37881;48.024;8.774;2024-02-26T04:26:52;8.07;;;4.72;;
51828;SDS011;37881;48.024;8.774;2024-02-26T04:29:19;8.50;;;4.20;;
51828;SDS011;37881;48.024;8.774;2024-02-26T04:31:46;7.63;;;3.95;;
51828;SDS011;37881;48.024;8.774;2024-02-26T04:34:14;7.35;;;3.92;;
51828;SDS011;37881;48.024;8.774;2024-02-26T04:36:41;8.55;;;4.45;;
51828;SDS011;37881;48.024;8.774;2024-02-26T04:39:09;10.63;;;5.65;;
51828;SDS011;37881;48.024;8.774;2024-02-26T04:41:36;127.77;;;35.13;;
51828;SDS011;37881;48.024;8.774;2024-02-26T04:44:03;24.05;;;8.80;;
51828;SDS011;37881;48.024;8.774;2024-02-26T04:46:30;7.43;;;4.30;;
51828;SDS011;37881;48.024;8.774;2024-02-26T04:48:56;6.60;;;3.50;;
51828;SDS011;37881;48.024;8.774;2024-02-26T04:51:24;6.40;;;3.40;;
51828;SDS011;37881;48.024;8.774;2024-02-26T04:53:51;12.53;;;5.63;;
51828;SDS011;37881;48.024;8.774;2024-02-26T04:56:20;8.05;;;4.00;;
51828;SDS011;37881;48.024;8.774;2024-02-26T04:58:48;10.10;;;5.95;;
51828;SDS011;37881;48.024;8.774;2024-02-26T05:01:15;12.15;;;5.70;;
51828;SDS011;37881;48.024;8.774;2024-02-26T05:03:43;10.25;;;5.43;;
51828;SDS011;37881;48.024;8.774;2024-02-26T05:06:10;20.37;;;9.57;;
51828;SDS011;37881;48.024;8.774;2024-02-26T05:08:37;22.55;;;11.40;;
51828;SDS011;37881;48.024;8.774;2024-02-26T05:11:05;11.15;;;6.00;;
51828;SDS011;37881;48.024;8.774;2024-02-26T05:13:32;9.13;;;5.05;;
51828;SDS011;37881;48.024;8.774;2024-02-26T05:15:59;12.25;;;6.63;;
51828;SDS011;37881;48.024;8.774;2024-02-26T05:18:26;82.47;;;38.17;;
51828;SDS011;37881;48.024;8.774;2024-02-26T05:20:54;64.75;;;27.30;;
51828;SDS011;37881;48.024;8.774;2024-02-26T05:23:20;16.38;;;8.68;;
51828;SDS011;37881;48.024;8.774;2024-02-26T05:25:49;12.02;;;6.38;;
51828;SDS011;37881;48.024;8.774;2024-02-26T05:28:16;26.75;;;10.38;;
51828;SDS011;37881;48.024;8.774;2024-02-26T05:30:43;21.77;;;10.27;;
51828;SDS011;37881;48.024;8.774;2024-02-26T05:33:10;16.80;;;6.15;;
51828;SDS011;37881;48.024;8.774;2024-02-26T05:35:40;23.65;;;11.25;;
51828;SDS011;37881;48.024;8.774;2024-02-26T05:38:07;21.38;;;10.43;;
51828;SDS011;37881;48.024;8.774;2024-02-26T05:40:34;11.70;;;6.07;;
51828;SDS011;37881;48.024;8.774;2024-02-26T05:43:00;17.67;;;7.93;;
51828;SDS011;37881;48.024;8.774;2024-02-26T05:45:27;12.30;;;7.32;;
51828;SDS011;37881;48.024;8.774;2024-02-26T05:47:54;7.63;;;4.13;;
51828;SDS011;37881;48.024;8.774;2024-02-26T05:50:21;7.07;;;3.90;;
51828;SDS011;37881;48.024;8.774;2024-02-26T05:52:48;6.57;;;4.00;;
51828;SDS011;37881;48.024;8.774;2024-02-26T05:55:15;14.23;;;7.33;;
51828;SDS011;37881;48.024;8.774;2024-02-26T05:57:41;10.85;;;5.38;;
51828;SDS011;37881;48.024;8.774;2024-02-26T06:00:08;14.00;;;6.72;;
51828;SDS011;37881;48.024;8.774;2024-02-26T06:02:39;11.43;;;5.35;;
51828;SDS011;37881;48.024;8.774;2024-02-26T06:05:06;12.00;;;6.00;;
51828;SDS011;37881;48.024;8.774;2024-02-26T06:07:35;11.83;;;5.63;;
51828;SDS011;37881;48.024;8.774;2024-02-26T06:10:02;11.73;;;5.50;;
51828;SDS011;37881;48.024;8.774;2024-02-26T06:12:31;15.93;;;8.15;;
51828;SDS011;37881;48.024;8.774;2024-02-26T06:14:58;23.50;;;11.65;;
51828;SDS011;37881;48.024;8.774;2024-02-26T06:17:27;44.22;;;18.65;;
51828;SDS011;37881;48.024;8.774;2024-02-26T06:19:54;54.20;;;24.77;;
51828;SDS011;37881;48.024;8.774;2024-02-26T06:22:21;53.60;;;22.58;;
51828;SDS011;37881;48.024;8.774;2024-02-26T06:24:48;27.33;;;12.70;;
51828;SDS011;37881;48.024;8.774;2024-02-26T06:27:14;26.15;;;11.90;;
51828;SDS011;37881;48.024;8.774;2024-02-26T06:29:41;26.50;;;13.55;;
51828;SDS011;37881;48.024;8.774;2024-02-26T06:32:08;23.70;;;10.35;;
51828;SDS011;37881;48.024;8.774;2024-02-26T06:34:35;30.38;;;10.45;;
51828;SDS011;37881;48.024;8.774;2024-02-26T06:37:05;21.55;;;9.98;;
51828;SDS011;37881;48.024;8.774;2024-02-26T06:39:31;18.80;;;8.90;;
51828;SDS011;37881;48.024;8.774;2024-02-26T06:41:58;24.45;;;10.75;;
51828;SDS011;37881;48.024;8.774;2024-02-26T06:44:28;21.20;;;9.83;;
51828;SDS011;37881;48.024;8.774;2024-02-26T06:47:00;19.88;;;9.30;;
51828;SDS011;37881;48.024;8.774;2024-02-26T06:49:28;11.85;;;6.40;;
51828;SDS011;37881;48.024;8.774;2024-02-26T06:51:55;10.57;;;5.55;;
51828;SDS011;37881;48.024;8.774;2024-02-26T06:54:22;13.55;;;6.80;;
51828;SDS011;37881;48.024;8.774;2024-02-26T06:56:48;16.50;;;7.00;;
51828;SDS011;37881;48.024;8.774;2024-02-26T06:59:15;17.98;;;7.60;;
51828;SDS011;37881;48.024;8.774;2024-02-26T07:01:42;16.45;;;7.72;;
51828;SDS011;37881;48.024;8.774;2024-02-26T07:04:09;22.67;;;10.00;;
51828;SDS011;37881;48.024;8.774;2024-02-26T07:06:37;23.02;;;9.85;;
51828;SDS011;37881;48.024;8.774;2024-02-26T07:09:04;16.73;;;8.20;;
51828;SDS011;37881;48.024;8.774;2024-02-26T07:11:31;15.60;;;7.53;;
51828;SDS011;37881;48.024;8.774;2024-02-26T07:13:58;16.88;;;8.18;;
51828;SDS011;37881;48.024;8.774;2024-02-26T07:16:24;13.18;;;6.80;;
51828;SDS011;37881;48.024;8.774;2024-02-26T07:18:51;13.75;;;6.95;;
51828;SDS011;37881;48.024;8.774;2024-02-26T07:21:18;12.00;;;6.27;;
51828;SDS011;37881;48.024;8.774;2024-02-26T07:23:45;11.90;;;6.65;;
51828;SDS011;37881;48.024;8.774;2024-02-26T07:26:11;11.07;;;6.00;;
51828;SDS011;37881;48.024;8.774;2024-02-26T07:28:38;10.52;;;5.60;;
51828;SDS011;37881;48.024;8.774;2024-02-26T07:31:05;10.43;;;5.90;;
51828;SDS011;37881;48.024;8.774;2024-02-26T07:33:32;10.17;;;5.60;;
51828;SDS011;37881;48.024;8.774;2024-02-26T07:35:59;10.73;;;5.88;;
51828;SDS011;37881;48.024;8.774;2024-02-26T07:38:25;10.65;;;5.50;;
51828;SDS011;37881;48.024;8.774;2024-02-26T07:41:07;11.45;;;5.22;;
51828;SDS011;37881;48.024;8.774;2024-02-26T07:43:34;10.23;;;5.43;;
51828;SDS011;37881;48.024;8.774;2024-02-26T07:46:01;10.57;;;5.03;;
51828;SDS011;37881;48.024;8.774;2024-02-26T07:48:28;8.85;;;5.10;;
51828;SDS011;37881;48.024;8.774;2024-02-26T07:50:55;9.05;;;4.70;;
51828;SDS011;37881;48.024;8.774;2024-02-26T07:53:22;9.73;;;4.85;;
51828;SDS011;37881;48.024;8.774;2024-02-26T07:55:49;11.02;;;6.07;;
51828;SDS011;37881;48.024;8.774;2024-02-26T07:58:15;14.07;;;6.70;;
51828;SDS011;37881;48.024;8.774;2024-02-26T08:00:42;14.02;;;6.50;;
51828;SDS011;37881;48.024;8.774;2024-02-26T08:03:10;10.77;;;5.88;;
51828;SDS011;37881;48.024;8.774;2024-02-26T08:05:37;18.17;;;8.73;;
51828;SDS011;37881;48.024;8.774;2024-02-26T08:08:06;14.73;;;7.70;;
51828;SDS011;37881;48.024;8.774;2024-02-26T08:10:33;16.10;;;7.57;;
51828;SDS011;37881;48.024;8.774;2024-02-26T08:13:00;14.85;;;6.50;;
51828;SDS011;37881;48.024;8.774;2024-02-26T08:15:32;13.32;;;7.05;;
51828;SDS011;37881;48.024;8.774;2024-02-26T08:18:01;23.25;;;10.07;;
51828;SDS011;37881;48.024;8.774;2024-02-26T08:20:31;20.83;;;8.02;;
51828;SDS011;37881;48.024;8.774;2024-02-26T08:22:58;19.07;;;9.03;;
51828;SDS011;37881;48.024;8.774;2024-02-26T08:25:25;12.45;;;5.78;;
51828;SDS011;37881;48.024;8.774;2024-02-26T08:27:52;9.10;;;4.72;;
51828;SDS011;37881;48.024;8.774;2024-02-26T08:30:19;10.20;;;4.80;;
51828;SDS011;37881;48.024;8.774;2024-02-26T08:32:47;9.52;;;5.07;;
51828;SDS011;37881;48.024;8.774;2024-02-26T08:35:17;8.30;;;5.40;;
51828;SDS011;37881;48.024;8.774;2024-02-26T08:37:45;11.13;;;5.03;;
51828;SDS011;37881;48.024;8.774;2024-02-26T08:40:12;8.70;;;4.80;;
51828;SDS011;37881;48.024;8.774;2024-02-26T08:42:40;11.93;;;6.07;;
51828;SDS011;37881;48.024;8.774;2024-02-26T08:45:07;12.00;;;6.18;;
51828;SDS011;37881;48.024;8.774;2024-02-26T08:47:34;12.53;;;7.03;;
51828;SDS011;37881;48.024;8.774;2024-02-26T08:50:01;13.70;;;7.20;;
51828;SDS011;37881;48.024;8.774;2024-02-26T08:52:29;19.67;;;7.90;;
51828;SDS011;37881;48.024;8.774;2024-02-26T08:54:55;23.40;;;8.65;;
51828;SDS011;37881;48.024;8.774;2024-02-26T08:57:23;18.92;;;7.43;;
51828;SDS011;37881;48.024;8.774;2024-02-26T08:59:50;11.80;;;6.37;;
51828;SDS011;37881;48.024;8.774;2024-02-26T09:02:17;14.57;;;6.43;;
51828;SDS011;37881;48.024;8.774;2024-02-26T09:04:43;11.60;;;6.10;;
51828;SDS011;37881;48.024;8.774;2024-02-26T09:07:10;10.65;;;4.97;;
51828;SDS011;37881;48.024;8.774;2024-02-26T09:09:37;13.95;;;4.88;;
51828;SDS011;37881;48.024;8.774;2024-02-26T09:12:04;9.50;;;4.90;;
51828;SDS011;37881;48.024;8.774;2024-02-26T09:14:31;17.20;;;4.32;;
51828;SDS011;37881;48.024;8.774;2024-02-26T09:16:58;7.65;;;3.40;;
51828;SDS011;37881;48.024;8.774;2024-02-26T09:19:25;7.47;;;2.90;;
51828;SDS011;37881;48.024;8.774;2024-02-26T09:21:54;5.97;;;2.67;;
51828;SDS011;37881;48.024;8.774;2024-02-26T09:24:24;14.93;;;3.20;;
51828;SDS011;37881;48.024;8.774;2024-02-26T09:26:51;15.30;;;2.83;;
51828;SDS011;37881;48.024;8.774;2024-02-26T09:29:18;6.18;;;1.90;;
51828;SDS011;37881;48.024;8.774;2024-02-26T09:31:45;4.13;;;1.77;;
51828;SDS011;37881;48.024;8.774;2024-02-26T09:34:14;9.95;;;2.70;;
51828;SDS011;37881;48.024;8.774;2024-02-26T09:36:41;4.73;;;1.80;;
51828;SDS011;37881;48.024;8.774;2024-02-26T09:39:08;7.47;;;2.10;;
51828;SDS011;37881;48.024;8.774;2024-02-26T09:41:38;15.75;;;2.30;;
51828;SDS011;37881;48.024;8.774;2024-02-26T09:44:05;9.18;;;2.13;;
51828;SDS011;37881;48.024;8.774;2024-02-26T09:46:32;5.80;;;2.05;;
51828;SDS011;37881;48.024;8.774;2024-02-26T09:48:59;18.80;;;2.33;;
51828;SDS011;37881;48.024;8.774;2024-02-26T09:51:27;11.50;;;2.10;;
51828;SDS011;37881;48.024;8.774;2024-02-26T09:53:55;9.07;;;2.20;;
51828;SDS011;37881;48.024;8.774;2024-02-26T09:56:25;4.40;;;1.90;;
51828;SDS011;37881;48.024;8.774;2024-02-26T09:58:53;3.67;;;1.90;;
51828;SDS011;37881;48.024;8.774;2024-02-26T10:01:22;5.67;;;1.80;;
51828;SDS011;37881;48.024;8.774;2024-02-26T10:03:55;6.15;;;1.92;;
51828;SDS011;37881;48.024;8.774;2024-02-26T10:06:26;12.45;;;3.05;;
51828;SDS011;37881;48.024;8.774;2024-02-26T10:08:54;7.47;;;3.25;;
51828;SDS011;37881;48.024;8.774;2024-02-26T10:11:25;5.93;;;2.10;;
51828;SDS011;37881;48.024;8.774;2024-02-26T10:13:53;3.60;;;2.00;;
51828;SDS011;37881;48.024;8.774;2024-02-26T10:16:20;5.72;;;1.90;;
51828;SDS011;37881;48.024;8.774;2024-02-26T10:18:50;4.20;;;2.20;;
51828;SDS011;37881;48.024;8.774;2024-02-26T10:21:25;3.85;;;2.10;;
51828;SDS011;37881;48.024;8.774;2024-02-26T10:23:53;7.43;;;2.00;;
51828;SDS011;37881;48.024;8.774;2024-02-26T10:26:20;3.30;;;1.43;;
51828;SDS011;37881;48.024;8.774;2024-02-26T10:28:48;3.30;;;1.70;;
51828;SDS011;37881;48.024;8.774;2024-02-26T10:31:20;2.75;;;1.60;;
51828;SDS011;37881;48.024;8.774;2024-02-26T10:33:47;6.22;;;2.00;;
51828;SDS011;37881;48.024;8.774;2024-02-26T10:36:15;10.27;;;2.28;;
51828;SDS011;37881;48.024;8.774;2024-02-26T10:38:43;3.27;;;1.90;;
51828;SDS011;37881;48.024;8.774;2024-02-26T10:41:13;4.45;;;1.92;;
51828;SDS011;37881;48.024;8.774;2024-02-26T10:43:42;7.30;;;1.70;;
51828;SDS011;37881;48.024;8.774;2024-02-26T10:46:10;8.88;;;2.05;;
51828;SDS011;37881;48.024;8.774;2024-02-26T10:48:36;4.70;;;1.60;;
51828;SDS011;37881;48.024;8.774;2024-02-26T10:51:04;2.80;;;1.30;;
51828;SDS011;37881;48.024;8.774;2024-02-26T10:53:31;4.22;;;1.70;;
51828;SDS011;37881;48.024;8.774;2024-02-26T10:56:01;3.72;;;1.60;;
51828;SDS011;37881;48.024;8.774;2024-02-26T10:58:31;4.90;;;1.50;;
51828;SDS011;37881;48.024;8.774;2024-02-26T11:00:58;2.83;;;1.35;;
51828;SDS011;37881;48.024;8.774;2024-02-26T11:03:26;6.40;;;1.80;;
51828;SDS011;37881;48.024;8.774;2024-02-26T11:05:58;5.65;;;1.92;;
51828;SDS011;37881;48.024;8.774;2024-02-26T11:08:27;4.18;;;1.50;;
51828;SDS011;37881;48.024;8.774;2024-02-26T11:10:56;3.50;;;1.60;;
51828;SDS011;37881;48.024;8.774;2024-02-26T11:13:26;4.13;;;1.90;;
51828;SDS011;37881;48.024;8.774;2024-02-26T11:15:57;4.60;;;1.23;;
51828;SDS011;37881;48.024;8.774;2024-02-26T11:18:26;5.40;;;1.10;;
51828;SDS011;37881;48.024;8.774;2024-02-26T11:20:54;2.00;;;1.05;;
51828;SDS011;37881;48.024;8.774;2024-02-26T11:23:24;4.68;;;1.50;;
51828;SDS011;37881;48.024;8.774;2024-02-26T11:25:51;3.08;;;1.00;;
51828;SDS011;37881;48.024;8.774;2024-02-26T11:28:22;2.60;;;1.10;;
51828;SDS011;37881;48.024;8.774;2024-02-26T11:30:50;4.35;;;1.20;;
51828;SDS011;37881;48.024;8.774;2024-02-26T11:33:19;4.65;;;1.27;;
51828;SDS011;37881;48.024;8.774;2024-02-26T11:35:46;6.38;;;1.50;;
51828;SDS011;37881;48.024;8.774;2024-02-26T11:38:17;2.55;;;1.00;;
51828;SDS011;37881;48.024;8.774;2024-02-26T11:40:47;3.83;;;1.10;;
51828;SDS011;37881;48.024;8.774;2024-02-26T11:43:14;5.32;;;1.20;;
51828;SDS011;37881;48.024;8.774;2024-02-26T11:45:47;2.85;;;1.17;;
51828;SDS011;37881;48.024;8.774;2024-02-26T11:48:17;2.45;;;1.17;;
51828;SDS011;37881;48.024;8.774;2024-02-26T11:50:48;2.00;;;0.80;;
51828;SDS011;37881;48.024;8.774;2024-02-26T11:56:40;4.07;;;1.10;;
51828;SDS011;37881;48.024;8.774;2024-02-26T11:58:58;6.57;;;1.20;;
51828;SDS011;37881;48.024;8.774;2024-02-26T12:01:39;6.68;;;1.67;;
51828;SDS011;37881;48.024;8.774;2024-02-26T12:04:11;4.28;;;1.25;;
51828;SDS011;37881;48.024;8.774;2024-02-26T12:06:47;3.73;;;1.10;;
51828;SDS011;37881;48.024;8.774;2024-02-26T12:09:31;2.20;;;1.05;;
51828;SDS011;37881;48.024;8.774;2024-02-26T12:14:34;2.40;;;1.10;;
51828;SDS011;37881;48.024;8.774;2024-02-26T12:17:04;3.25;;;1.38;;
51828;SDS011;37881;48.024;8.774;2024-02-26T12:19:37;2.10;;;1.00;;
51828;SDS011;37881;48.024;8.774;2024-02-26T12:22:09;2.60;;;0.70;;
51828;SDS011;37881;48.024;8.774;2024-02-26T12:24:39;2.03;;;1.00;;
51828;SDS011;37881;48.024;8.774;2024-02-26T12:27:05;2.47;;;1.15;;
51828;SDS011;37881;48.024;8.774;2024-02-26T12:29:32;2.60;;;1.10;;
51828;SDS011;37881;48.024;8.774;2024-02-26T12:31:59;2.93;;;1.00;;
51828;SDS011;37881;48.024;8.774;2024-02-26T12:34:31;2.30;;;1.10;;
51828;SDS011;37881;48.024;8.774;2024-02-26T12:36:58;2.70;;;1.10;;
51828;SDS011;37881;48.024;8.774;2024-02-26T12:39:27;7.00;;;1.90;;
51828;SDS011;37881;48.024;8.774;2024-02-26T12:41:55;2.20;;;1.20;;
51828;SDS011;37881;48.024;8.774;2024-02-26T12:44:26;3.10;;;1.30;;
51828;SDS011;37881;48.024;8.774;2024-02-26T12:47:02;2.42;;;1.20;;
51828;SDS011;37881;48.024;8.774;2024-02-26T12:49:30;4.28;;;1.50;;
51828;SDS011;37881;48.024;8.774;2024-02-26T12:51:58;4.28;;;2.42;;
51828;SDS011;37881;48.024;8.774;2024-02-26T12:54:31;2.38;;;1.25;;
51828;SDS011;37881;48.024;8.774;2024-02-26T12:57:00;11.73;;;1.93;;
51828;SDS011;37881;48.024;8.774;2024-02-26T12:59:29;5.97;;;3.25;;
51828;SDS011;37881;48.024;8.774;2024-02-26T13:01:57;2.60;;;1.20;;
51828;SDS011;37881;48.024;8.774;2024-02-26T13:04:24;2.72;;;1.50;;
51828;SDS011;37881;48.024;8.774;2024-02-26T13:06:55;3.80;;;1.73;;
51828;SDS011;37881;48.024;8.774;2024-02-26T13:09:22;2.70;;;1.10;;
51828;SDS011;37881;48.024;8.774;2024-02-26T13:11:55;3.53;;;1.80;;
51828;SDS011;37881;48.024;8.774;2024-02-26T13:14:22;2.95;;;1.70;;
51828;SDS011;37881;48.024;8.774;2024-02-26T13:16:56;6.72;;;1.80;;
51828;SDS011;37881;48.024;8.774;2024-02-26T13:19:25;2.55;;;1.40;;
51828;SDS011;37881;48.024;8.774;2024-02-26T13:21:54;3.07;;;1.60;;
51828;SDS011;37881;48.024;8.774;2024-02-26T13:24:22;6.03;;;1.50;;
51828;SDS011;37881;48.024;8.774;2024-02-26T13:26:55;2.38;;;1.30;;
51828;SDS011;37881;48.024;8.774;2024-02-26T13:29:22;2.80;;;1.35;;
51828;SDS011;37881;48.024;8.774;2024-02-26T13:31:55;5.60;;;1.50;;
51828;SDS011;37881;48.024;8.774;2024-02-26T13:34:25;2.77;;;1.40;;
51828;SDS011;37881;48.024;8.774;2024-02-26T13:36:53;6.32;;;1.63;;
51828;SDS011;37881;48.024;8.774;2024-02-26T13:39:21;8.73;;;1.30;;
51828;SDS011;37881;48.024;8.774;2024-02-26T13:41:52;2.88;;;1.08;;
51828;SDS011;37881;48.024;8.774;2024-02-26T13:44:20;2.70;;;1.40;;
51828;SDS011;37881;48.024;8.774;2024-02-26T13:46:47;2.33;;;1.20;;
51828;SDS011;37881;48.024;8.774;2024-02-26T13:49:15;3.78;;;1.30;;
51828;SDS011;37881;48.024;8.774;2024-02-26T13:51:42;2.47;;;1.20;;
51828;SDS011;37881;48.024;8.774;2024-02-26T13:54:09;2.22;;;1.02;;
51828;SDS011;37881;48.024;8.774;2024-02-26T13:56:37;3.90;;;1.38;;
51828;SDS011;37881;48.024;8.774;2024-02-26T13:59:04;3.63;;;1.47;;
51828;SDS011;37881;48.024;8.774;2024-02-26T14:01:31;2.60;;;1.50;;
51828;SDS011;37881;48.024;8.774;2024-02-26T14:04:00;2.63;;;1.13;;
51828;SDS011;37881;48.024;8.774;2024-02-26T14:06:29;2.70;;;1.30;;
51828;SDS011;37881;48.024;8.774;2024-02-26T14:08:57;3.72;;;1.38;;
51828;SDS011;37881;48.024;8.774;2024-02-26T14:11:25;2.20;;;1.10;;
51828;SDS011;37881;48.024;8.774;2024-02-26T14:13:52;2.42;;;1.20;;
51828;SDS011;37881;48.024;8.774;2024-02-26T14:16:19;3.30;;;1.02;;
51828;SDS011;37881;48.024;8.774;2024-02-26T14:18:46;2.20;;;1.00;;
51828;SDS011;37881;48.024;8.774;2024-02-26T14:21:13;2.00;;;1.10;;
51828;SDS011;37881;48.024;8.774;2024-02-26T14:23:40;2.00;;;0.87;;
51828;SDS011;37881;48.024;8.774;2024-02-26T14:26:09;2.75;;;1.20;;
51828;SDS011;37881;48.024;8.774;2024-02-26T14:28:35;2.22;;;0.90;;
51828;SDS011;37881;48.024;8.774;2024-02-26T14:31:03;2.20;;;1.10;;
51828;SDS011;37881;48.024;8.774;2024-02-26T14:33:32;2.78;;;0.98;;
51828;SDS011;37881;48.024;8.774;2024-02-26T14:35:59;2.90;;;1.20;;
51828;SDS011;37881;48.024;8.774;2024-02-26T14:38:26;3.25;;;1.08;;
51828;SDS011;37881;48.024;8.774;2024-02-26T14:40:52;2.13;;;1.20;;
51828;SDS011;37881;48.024;8.774;2024-02-26T14:43:19;4.07;;;0.93;;
51828;SDS011;37881;48.024;8.774;2024-02-26T14:45:46;1.90;;;0.80;;
51828;SDS011;37881;48.024;8.774;2024-02-26T14:48:13;3.87;;;1.37;;
51828;SDS011;37881;48.024;8.774;2024-02-26T14:50:40;2.28;;;1.20;;
51828;SDS011;37881;48.024;8.774;2024-02-26T14:53:07;2.60;;;0.80;;